createdAt,value
2023-08-28T00:00:35.928Z,21.64
2023-08-28T00:03:03.937Z,21.60
2023-08-28T00:05:31.739Z,21.67
2023-08-28T00:07:59.259Z,21.64
2023-08-28T00:10:26.805Z,21.61
2023-08-28T00:12:54.090Z,21.66
2023-08-28T00:15:23.531Z,21.51
2023-08-28T00:17:50.738Z,21.53
2023-08-28T00:20:18.326Z,21.51
2023-08-28T00:22:46.356Z,21.42
2023-08-28T00:25:13.831Z,21.47
2023-08-28T00:27:41.137Z,21.47
2023-08-28T00:30:10.547Z,21.49
2023-08-28T00:32:39.738Z,21.39
2023-08-28T00:35:07.705Z,21.42
2023-08-28T00:37:34.949Z,21.35
2023-08-28T00:40:02.242Z,21.33
2023-08-28T00:42:29.577Z,21.29
2023-08-28T00:44:56.771Z,21.32
2023-08-28T00:47:24.712Z,21.31
2023-08-28T00:49:53.665Z,21.26
2023-08-28T00:52:21.058Z,21.21
2023-08-28T00:54:48.872Z,21.21
2023-08-28T00:57:18.202Z,21.16
2023-08-28T00:59:45.914Z,21.15
2023-08-28T01:02:13.485Z,21.13
2023-08-28T01:04:40.944Z,21.09
2023-08-28T01:07:18.733Z,21.01
2023-08-28T01:09:56.176Z,20.96
2023-08-28T01:12:29.671Z,20.96
2023-08-28T01:15:04.207Z,20.95
2023-08-28T01:17:32.401Z,20.94
2023-08-28T01:20:01.088Z,20.91
2023-08-28T01:22:34.138Z,20.90
2023-08-28T01:25:07.112Z,20.91
2023-08-28T01:27:35.395Z,20.88
2023-08-28T01:30:07.611Z,20.84
2023-08-28T01:32:34.871Z,20.75
2023-08-28T01:35:05.330Z,20.81
2023-08-28T01:37:40.972Z,20.81
2023-08-28T01:40:11.206Z,20.67
2023-08-28T01:42:38.477Z,20.71
2023-08-28T01:45:07.782Z,20.64
2023-08-28T01:47:35.099Z,20.63
2023-08-28T01:50:02.343Z,20.56
2023-08-28T01:52:29.700Z,20.53
2023-08-28T01:54:56.993Z,20.50
2023-08-28T01:57:27.536Z,20.48
2023-08-28T01:59:56.057Z,20.43
2023-08-28T02:02:23.466Z,20.37
2023-08-28T02:04:50.831Z,20.36
2023-08-28T02:07:18.079Z,20.34
2023-08-28T02:09:45.495Z,20.36
2023-08-28T02:12:12.720Z,20.26
2023-08-28T02:14:41.288Z,20.20
2023-08-28T02:17:08.648Z,20.25
2023-08-28T02:19:35.939Z,20.20
2023-08-28T02:22:03.190Z,20.18
2023-08-28T02:24:30.475Z,20.16
2023-08-28T02:26:57.690Z,20.10
2023-08-28T02:29:24.965Z,20.00
2023-08-28T02:31:53.609Z,19.99
2023-08-28T02:34:20.807Z,20.06
2023-08-28T02:36:48.029Z,20.05
2023-08-28T02:39:15.265Z,20.00
2023-08-28T02:41:42.478Z,19.96
2023-08-28T02:44:09.677Z,19.98
2023-08-28T02:49:44.499Z,19.95
2023-08-28T02:52:12.098Z,19.96
2023-08-28T02:54:39.451Z,19.96
2023-08-28T02:57:06.666Z,19.99
2023-08-28T02:59:34.191Z,19.95
2023-08-28T03:02:01.483Z,19.95
2023-08-28T03:04:28.731Z,19.93
2023-08-28T03:06:57.393Z,19.85
2023-08-28T03:09:24.713Z,19.82
2023-08-28T03:11:51.877Z,19.88
2023-08-28T03:14:19.286Z,19.82
2023-08-28T03:16:46.496Z,19.82
2023-08-28T03:19:13.807Z,19.86
2023-08-28T03:21:44.055Z,19.86
2023-08-28T03:24:12.718Z,19.82
2023-08-28T03:26:39.972Z,19.79
2023-08-28T03:29:07.169Z,19.86
2023-08-28T03:31:34.640Z,19.89
2023-08-28T03:34:01.873Z,19.85
2023-08-28T03:36:29.164Z,19.85
2023-08-28T03:38:56.456Z,19.82
2023-08-28T03:41:25.081Z,19.78
2023-08-28T03:43:52.255Z,19.83
2023-08-28T03:46:19.494Z,19.88
2023-08-28T03:48:48.025Z,19.88
2023-08-28T03:51:15.251Z,19.93
2023-08-28T03:53:43.443Z,19.79
2023-08-28T03:56:11.181Z,19.85
2023-08-28T03:58:39.786Z,20.44
2023-08-28T04:01:07.209Z,20.29
2023-08-28T04:03:34.567Z,20.15
2023-08-28T04:06:01.857Z,20.18
2023-08-28T04:08:29.196Z,20.36
2023-08-28T04:10:58.746Z,20.46
2023-08-28T04:13:27.019Z,20.48
2023-08-28T04:15:55.702Z,20.64
2023-08-28T04:18:22.948Z,20.56
2023-08-28T04:20:50.788Z,20.68
2023-08-28T04:23:18.866Z,21.23
2023-08-28T04:25:46.194Z,20.68
2023-08-28T04:28:14.078Z,21.13
2023-08-28T04:30:42.100Z,22.41
2023-08-28T04:33:10.851Z,21.57
2023-08-28T04:35:38.226Z,21.84
2023-08-28T04:38:05.588Z,21.46
2023-08-28T04:45:24.569Z,21.06
2023-08-28T04:48:02.563Z,20.56
2023-08-28T04:50:59.674Z,20.53
2023-08-28T04:54:48.185Z,20.20
2023-08-28T04:57:30.480Z,20.19
2023-08-28T05:00:11.036Z,20.27
2023-08-28T05:06:56.280Z,20.09
2023-08-28T05:09:49.118Z,20.46
2023-08-28T05:12:24.520Z,20.41
2023-08-28T05:14:57.892Z,20.15
2023-08-28T05:17:31.463Z,20.26
2023-08-28T05:28:25.055Z,20.68
2023-08-28T05:30:59.892Z,20.84
2023-08-28T05:33:57.534Z,20.87
2023-08-28T05:36:48.905Z,21.06
2023-08-28T05:39:33.502Z,20.50
2023-08-28T05:42:17.247Z,20.47
2023-08-28T05:53:08.779Z,20.40
2023-08-28T05:59:35.825Z,20.81
2023-08-28T06:30:43.355Z,21.53
2023-08-28T06:33:10.692Z,21.49
2023-08-28T06:35:38.562Z,21.61
2023-08-28T06:38:05.768Z,21.83
2023-08-28T06:40:33.004Z,21.46
2023-08-28T06:43:00.599Z,21.39
2023-08-28T06:45:28.076Z,21.45
2023-08-28T06:47:58.854Z,21.45
2023-08-28T06:50:26.215Z,21.67
2023-08-28T06:52:54.898Z,21.67
2023-08-28T06:55:22.374Z,21.67
2023-08-28T06:57:50.293Z,21.51
2023-08-28T07:00:18.102Z,21.56
2023-08-28T07:02:45.389Z,21.43
2023-08-28T07:05:14.168Z,21.63
2023-08-28T07:07:41.448Z,21.88
2023-08-28T07:10:09.274Z,21.84
2023-08-28T07:12:36.605Z,22.08
2023-08-28T07:15:50.989Z,22.38
2023-08-28T07:18:19.797Z,22.59
2023-08-28T07:20:47.039Z,22.69
2023-08-28T07:23:14.332Z,22.28
2023-08-28T07:25:41.633Z,22.63
2023-08-28T07:28:10.263Z,22.45
2023-08-28T07:30:37.623Z,22.05
2023-08-28T07:33:05.837Z,22.04
2023-08-28T07:35:37.651Z,22.15
2023-08-28T07:38:06.537Z,22.00
2023-08-28T07:40:34.522Z,21.98
2023-08-28T07:43:02.500Z,22.07
2023-08-28T07:45:30.706Z,22.15
2023-08-28T07:47:58.218Z,22.24
2023-08-28T07:50:25.604Z,22.45
2023-08-28T07:52:54.363Z,22.52
2023-08-28T07:55:21.830Z,22.82
2023-08-28T07:57:49.136Z,22.64
2023-08-28T08:00:17.971Z,22.76
2023-08-28T08:02:45.232Z,22.97
2023-08-28T08:05:12.585Z,22.90
2023-08-28T08:19:53.761Z,23.55
2023-08-28T08:22:21.097Z,23.54
2023-08-28T08:24:48.281Z,23.85
2023-08-28T08:27:15.550Z,23.99
2023-08-28T08:29:44.297Z,23.61
2023-08-28T08:32:11.469Z,23.54
2023-08-28T08:34:38.643Z,23.76
2023-08-28T08:37:07.632Z,23.51
2023-08-28T08:39:34.968Z,23.79
2023-08-28T08:42:02.544Z,23.89
2023-08-28T08:44:31.321Z,23.76
2023-08-28T08:46:59.382Z,23.86
2023-08-28T08:49:28.548Z,24.10
2023-08-28T08:52:00.645Z,24.04
2023-08-28T08:54:35.884Z,23.97
2023-08-28T08:57:08.329Z,24.24
2023-08-28T08:59:36.278Z,24.12
2023-08-28T09:02:04.849Z,23.99
2023-08-28T09:04:33.968Z,24.14
2023-08-28T09:07:03.943Z,24.17
2023-08-28T09:09:34.109Z,24.24
2023-08-28T09:12:01.347Z,24.47
2023-08-28T09:14:29.744Z,24.68
2023-08-28T09:16:57.021Z,24.76
2023-08-28T09:19:24.429Z,24.85
2023-08-28T09:21:51.733Z,24.83
2023-08-28T09:24:22.845Z,25.20
2023-08-28T09:26:55.262Z,24.82
2023-08-28T09:29:23.737Z,25.09
2023-08-28T09:31:52.568Z,25.54
2023-08-28T09:34:22.988Z,25.75
2023-08-28T09:36:50.215Z,25.67
2023-08-28T09:39:17.641Z,25.71
2023-08-28T09:41:48.075Z,25.98
2023-08-28T09:44:18.038Z,25.91
2023-08-28T09:46:45.948Z,25.61
2023-08-28T09:49:14.941Z,25.77
2023-08-28T09:51:43.309Z,25.73
2023-08-28T09:54:11.945Z,25.91
2023-08-28T09:56:40.360Z,26.01
2023-08-28T09:59:08.477Z,26.19
2023-08-28T10:01:38.547Z,26.51
2023-08-28T10:04:07.421Z,26.44
2023-08-28T10:06:39.502Z,26.56
2023-08-28T10:09:12.161Z,26.39
2023-08-28T10:11:40.772Z,26.57
2023-08-28T10:14:08.432Z,26.83
2023-08-28T10:16:42.676Z,26.64
2023-08-28T10:19:18.316Z,26.70
2023-08-28T10:21:48.955Z,26.88
2023-08-28T10:24:18.931Z,26.61
2023-08-28T10:26:48.271Z,26.88
2023-08-28T10:29:18.670Z,26.98
2023-08-28T10:31:47.774Z,26.97
2023-08-28T10:34:16.816Z,27.35
2023-08-28T10:39:18.408Z,27.19
2023-08-28T10:41:47.498Z,27.21
2023-08-28T10:44:15.898Z,27.56
2023-08-28T10:46:43.323Z,27.77
2023-08-28T10:49:13.226Z,27.49
2023-08-28T10:51:45.941Z,26.53
2023-08-28T10:54:13.294Z,26.90
2023-08-28T10:56:40.973Z,27.22
2023-08-28T10:59:25.458Z,27.26
2023-08-28T11:01:53.943Z,27.04
2023-08-28T11:04:23.732Z,27.04
2023-08-28T11:06:51.670Z,27.43
2023-08-28T11:09:38.514Z,27.70
2023-08-28T11:12:25.296Z,27.73
2023-08-28T11:15:04.307Z,27.79
2023-08-28T11:17:33.052Z,27.67
2023-08-28T11:20:10.163Z,28.08
2023-08-28T11:22:39.439Z,28.53
2023-08-28T11:25:08.831Z,28.44
2023-08-28T11:27:43.779Z,28.70
2023-08-28T11:30:12.491Z,28.58
2023-08-28T11:32:42.144Z,29.23
2023-08-28T11:35:14.647Z,28.82
2023-08-28T11:37:47.444Z,29.52
2023-08-28T11:40:18.447Z,29.66
2023-08-28T11:42:47.816Z,29.83
2023-08-28T11:45:21.497Z,29.90
2023-08-28T11:47:50.815Z,30.00
2023-08-28T11:50:20.177Z,29.82
2023-08-28T11:52:48.754Z,29.24
2023-08-28T11:55:16.229Z,28.97
2023-08-28T11:57:44.782Z,29.18
2023-08-28T12:00:17.300Z,29.50
2023-08-28T12:02:48.316Z,29.69
2023-08-28T12:05:17.457Z,29.66
2023-08-28T12:07:47.314Z,29.34
2023-08-28T12:10:16.635Z,30.17
2023-08-28T12:12:44.040Z,30.72
2023-08-28T12:15:11.843Z,30.51
2023-08-28T12:17:39.980Z,30.85
2023-08-28T12:20:17.510Z,30.34
2023-08-28T12:22:47.119Z,29.50
2023-08-28T12:25:14.615Z,30.53
2023-08-28T12:27:41.954Z,31.47
2023-08-28T12:30:19.266Z,31.53
2023-08-28T12:32:52.500Z,31.36
2023-08-28T12:35:22.190Z,32.02
2023-08-28T12:37:51.512Z,32.22
2023-08-28T12:40:18.829Z,31.89
2023-08-28T12:42:46.997Z,31.88
2023-08-28T12:45:14.373Z,32.60
2023-08-28T12:47:41.912Z,32.31
2023-08-28T12:50:13.521Z,32.19
2023-08-28T12:52:42.239Z,31.41
2023-08-28T12:55:11.097Z,31.02
2023-08-28T12:57:38.306Z,30.60
2023-08-28T13:00:08.852Z,30.57
2023-08-28T13:02:36.460Z,30.49
2023-08-28T13:05:04.023Z,30.23
2023-08-28T13:07:31.336Z,30.33
2023-08-28T13:09:58.537Z,30.09
2023-08-28T13:12:27.112Z,29.90
2023-08-28T13:14:54.289Z,29.51
2023-08-28T13:17:22.376Z,29.88
2023-08-28T13:19:49.632Z,29.76
2023-08-28T13:22:16.819Z,29.63
2023-08-28T13:24:45.077Z,29.54
2023-08-28T13:27:13.167Z,29.42
2023-08-28T13:29:41.737Z,29.39
2023-08-28T13:32:09.004Z,29.65
2023-08-28T13:34:36.313Z,29.62
2023-08-28T13:37:06.974Z,29.68
2023-08-28T13:39:34.434Z,29.86
2023-08-28T13:42:01.683Z,29.59
2023-08-28T13:44:31.375Z,29.81
2023-08-28T13:47:00.361Z,29.62
2023-08-28T13:49:27.608Z,29.66
2023-08-28T13:51:54.798Z,29.73
2023-08-28T13:54:22.112Z,29.90
2023-08-28T13:56:49.407Z,29.93
2023-08-28T13:59:16.681Z,29.93
2023-08-28T14:01:43.989Z,29.78
2023-08-28T14:04:13.125Z,29.83
2023-08-28T14:06:40.293Z,29.61
2023-08-28T14:09:08.023Z,29.55
2023-08-28T14:11:35.234Z,29.25
2023-08-28T14:14:02.397Z,29.02
2023-08-28T14:16:29.610Z,29.03
2023-08-28T14:18:56.865Z,29.03
2023-08-28T14:21:25.503Z,29.04
2023-08-28T14:23:52.757Z,28.83
2023-08-28T14:26:22.215Z,28.94
2023-08-28T14:28:49.453Z,29.08
2023-08-28T14:31:16.786Z,28.92
2023-08-28T14:33:44.046Z,28.82
2023-08-28T14:36:11.262Z,28.80
2023-08-28T14:38:39.909Z,28.86
2023-08-28T14:41:07.143Z,28.89
2023-08-28T14:43:34.476Z,28.89
2023-08-28T14:46:01.762Z,28.86
2023-08-28T14:48:29.070Z,28.83
2023-08-28T14:50:56.601Z,28.94
2023-08-28T14:53:23.895Z,28.97
2023-08-28T14:55:53.473Z,29.00
2023-08-28T14:58:21.648Z,29.13
2023-08-28T15:00:51.285Z,29.02
2023-08-28T15:03:19.467Z,28.94
2023-08-28T15:05:46.866Z,28.86
2023-08-28T15:08:17.738Z,28.75
2023-08-28T15:10:45.411Z,28.58
2023-08-28T15:13:14.128Z,28.63
2023-08-28T15:15:42.393Z,28.59
2023-08-28T15:18:09.936Z,28.52
2023-08-28T15:20:37.303Z,28.55
2023-08-28T15:23:05.277Z,28.53
2023-08-28T15:25:32.963Z,28.68
2023-08-28T15:28:00.221Z,28.77
2023-08-28T15:30:31.125Z,28.72
2023-08-28T15:32:58.646Z,28.86
2023-08-28T15:35:26.196Z,28.82
2023-08-28T15:37:53.576Z,28.75
2023-08-28T15:40:22.283Z,28.83
2023-08-28T15:42:49.589Z,28.93
2023-08-28T15:45:16.930Z,28.94
2023-08-28T15:47:47.673Z,28.62
2023-08-28T15:50:15.386Z,28.60
2023-08-28T15:52:42.842Z,28.51
2023-08-28T15:55:10.519Z,28.63
2023-08-28T15:57:37.921Z,28.59
2023-08-28T16:00:08.647Z,28.49
2023-08-28T16:02:36.183Z,28.38
2023-08-28T16:05:09.446Z,28.24
2023-08-28T16:07:36.698Z,28.00
2023-08-28T16:10:04.306Z,28.00
2023-08-28T16:12:31.750Z,27.87
2023-08-28T16:14:59.711Z,27.74
2023-08-28T16:17:26.939Z,27.62
2023-08-28T16:19:54.210Z,27.53
2023-08-28T16:22:22.837Z,27.49
2023-08-28T16:24:50.098Z,27.34
2023-08-28T16:27:17.331Z,27.28
2023-08-28T16:29:44.724Z,27.24
2023-08-28T16:32:12.026Z,27.07
2023-08-28T16:34:39.268Z,26.95
2023-08-28T16:37:06.743Z,26.98
2023-08-28T16:39:35.558Z,26.94
2023-08-28T16:42:02.758Z,26.92
2023-08-28T16:44:30.123Z,26.91
2023-08-28T16:46:57.296Z,26.92
2023-08-28T16:49:24.523Z,26.83
2023-08-28T16:51:51.835Z,26.86
2023-08-28T16:54:19.096Z,26.77
2023-08-28T16:56:47.817Z,26.70
2023-08-28T16:59:15.074Z,26.63
2023-08-28T17:01:42.361Z,26.63
2023-08-28T17:04:09.684Z,26.60
2023-08-28T17:06:40.947Z,26.50
2023-08-28T17:09:14.161Z,26.40
2023-08-28T17:11:41.395Z,26.42
2023-08-28T17:14:10.192Z,26.40
2023-08-28T17:16:37.747Z,26.35
2023-08-28T17:19:05.601Z,26.29
2023-08-28T17:21:32.837Z,26.29
2023-08-28T17:24:00.067Z,26.26
2023-08-28T17:26:27.298Z,26.26
2023-08-28T17:28:57.788Z,26.13
2023-08-28T17:31:26.654Z,26.09
2023-08-28T17:33:54.006Z,26.03
2023-08-28T17:36:22.767Z,26.02
2023-08-28T17:38:56.955Z,25.92
2023-08-28T17:41:24.227Z,25.86
2023-08-28T17:43:51.539Z,25.77
2023-08-28T17:46:20.112Z,25.63
2023-08-28T17:48:48.773Z,25.55
2023-08-28T17:51:16.236Z,25.57
2023-08-28T17:53:43.667Z,25.48
2023-08-28T17:56:10.906Z,25.43
2023-08-28T17:58:38.066Z,25.37
2023-08-28T18:01:05.555Z,25.38
2023-08-28T18:03:38.859Z,25.43
2023-08-28T18:06:10.159Z,25.41
2023-08-28T18:08:37.723Z,25.48
2023-08-28T18:11:05.118Z,25.44
2023-08-28T18:13:32.333Z,25.40
2023-08-28T18:15:59.623Z,25.37
2023-08-28T18:18:27.121Z,25.36
2023-08-28T18:20:56.498Z,25.38
2023-08-28T18:23:26.700Z,25.36
2023-08-28T18:25:55.612Z,25.24
2023-08-28T18:28:23.861Z,24.92
2023-08-28T18:31:00.276Z,24.23
2023-08-28T18:33:27.863Z,24.17
2023-08-28T18:35:55.202Z,23.65
2023-08-28T18:38:22.523Z,22.46
2023-08-28T18:40:52.206Z,21.67
2023-08-28T18:43:19.771Z,21.78
2023-08-28T18:45:47.612Z,21.67
2023-08-28T18:48:15.380Z,21.70
